Time;durP1;ratioP1;P1;durP2;ratioP2;P2;SDS_P1;SDS_P2;PMS_P1;PMS_P2;Temp;Humidity;BMP_temperature;BMP_pressure;BME280_temperature;BME280_humidity;BME280_pressure;Samples;Min_cycle;Max_cycle;Signal;HPM_P1;HPM_P2
2021/10/25 00:00:19;;;;;;;16.23;11.00;;;14.90;99.90;;;;;;6184481;23;20001;-85
2021/10/25 00:02:45;;;;;;;30.92;14.55;;;14.90;99.90;;;;;;6184812;23;20005;-84
2021/10/25 00:05:11;;;;;;;22.33;11.40;;;14.90;99.90;;;;;;6184616;23;20007;-83
2021/10/25 00:07:36;;;;;;;15.63;8.38;;;14.90;99.90;;;;;;6184521;23;20475;-83
2021/10/25 00:10:04;;;;;;;24.55;9.00;;;14.90;99.90;;;;;;6184621;23;20083;-84
2021/10/25 00:12:30;;;;;;;17.27;8.80;;;14.90;99.90;;;;;;6184680;23;20005;-84
2021/10/25 00:14:56;;;;;;;16.25;7.78;;;14.90;99.90;;;;;;6184192;23;20354;-84
2021/10/25 00:17:21;;;;;;;15.05;7.85;;;14.90;99.90;;;;;;6182268;23;20016;-84
2021/10/25 00:19:47;;;;;;;17.88;5.90;;;15.00;99.90;;;;;;6184172;23;20001;-84
2021/10/25 00:22:13;;;;;;;13.27;5.50;;;15.00;99.90;;;;;;6183788;23;20001;-84
2021/10/25 00:24:39;;;;;;;11.32;5.68;;;14.90;99.90;;;;;;6183803;23;20490;-84
2021/10/25 00:27:05;;;;;;;14.93;5.50;;;14.90;99.90;;;;;;6183719;23;20021;-84
2021/10/25 00:29:32;;;;;;;14.98;6.57;;;15.00;99.90;;;;;;6183622;23;20072;-84
2021/10/25 00:31:57;;;;;;;17.83;5.10;;;14.90;99.90;;;;;;6183780;23;20005;-85
2021/10/25 00:34:23;;;;;;;11.80;4.80;;;15.00;99.90;;;;;;6183728;23;20028;-85
2021/10/25 00:36:49;;;;;;;12.10;3.67;;;15.00;99.90;;;;;;6183819;23;19997;-84
2021/10/25 00:39:15;;;;;;;12.55;3.10;;;15.00;99.90;;;;;;6183433;23;20071;-84
2021/10/25 00:41:41;;;;;;;8.27;3.60;;;15.10;99.90;;;;;;6181770;23;20376;-84
2021/10/25 00:44:07;;;;;;;12.85;3.67;;;15.10;99.90;;;;;;6182909;23;20012;-84
2021/10/25 00:46:33;;;;;;;16.50;4.28;;;15.10;99.90;;;;;;6184109;23;20001;-84
2021/10/25 00:48:59;;;;;;;17.88;5.53;;;15.10;99.90;;;;;;6184228;23;20055;-85
2021/10/25 00:51:25;;;;;;;19.15;5.30;;;15.10;99.90;;;;;;6184141;23;20478;-84
2021/10/25 00:53:51;;;;;;;15.43;4.70;;;15.10;99.90;;;;;;6184187;23;20434;-84
2021/10/25 00:56:17;;;;;;;11.05;4.47;;;15.10;99.90;;;;;;6183956;23;20024;-84
2021/10/25 00:58:43;;;;;;;10.60;4.05;;;15.10;99.90;;;;;;6184086;23;20067;-84
2021/10/25 01:01:09;;;;;;;9.23;4.10;;;15.10;99.90;;;;;;6183350;23;20024;-84
2021/10/25 01:03:36;;;;;;;13.98;4.05;;;15.00;99.90;;;;;;6183390;23;20005;-84
2021/10/25 01:06:04;;;;;;;7.85;3.22;;;15.10;99.90;;;;;;6183454;23;20465;-84
2021/10/25 01:08:35;;;;;;;7.35;3.00;;;15.00;99.90;;;;;;6183388;23;20016;-83
2021/10/25 01:11:01;;;;;;;7.28;3.10;;;15.00;99.90;;;;;;6183463;23;20430;-84
2021/10/25 01:13:27;;;;;;;7.72;3.42;;;15.00;99.90;;;;;;6183119;23;20477;-84
2021/10/25 01:15:54;;;;;;;7.18;3.45;;;15.00;99.90;;;;;;6183887;23;20005;-84
2021/10/25 01:18:19;;;;;;;8.40;4.00;;;15.00;99.90;;;;;;6182644;23;20055;-84
2021/10/25 01:20:46;;;;;;;7.45;3.25;;;15.00;99.90;;;;;;6184111;23;20084;-84
2021/10/25 01:23:11;;;;;;;7.82;3.15;;;15.00;99.90;;;;;;6184014;23;19998;-84
2021/10/25 01:25:37;;;;;;;7.95;2.70;;;15.00;99.90;;;;;;6183685;23;20016;-84
2021/10/25 01:28:04;;;;;;;4.88;2.67;;;15.00;99.90;;;;;;6183847;23;20067;-84
2021/10/25 01:30:30;;;;;;;4.65;2.38;;;15.00;99.90;;;;;;6183734;23;19997;-84
2021/10/25 01:32:56;;;;;;;3.92;2.42;;;15.00;99.90;;;;;;6181558;23;20056;-84
2021/10/25 01:35:22;;;;;;;5.47;2.25;;;15.00;99.90;;;;;;6183118;23;20001;-84
2021/10/25 01:37:47;;;;;;;7.03;3.00;;;14.90;99.90;;;;;;6183178;23;20127;-84
2021/10/25 01:40:14;;;;;;;6.18;2.95;;;14.90;99.90;;;;;;6182930;23;20008;-84
2021/10/25 01:42:41;;;;;;;8.88;3.03;;;14.90;99.90;;;;;;6181372;23;20009;-84
2021/10/25 01:45:08;;;;;;;5.05;2.60;;;14.90;99.90;;;;;;6181325;23;20386;-84
2021/10/25 01:47:34;;;;;;;6.43;2.50;;;14.90;99.90;;;;;;6183887;23;20055;-84
2021/10/25 01:50:00;;;;;;;7.40;3.00;;;14.90;99.90;;;;;;6183836;23;19997;-84
2021/10/25 01:52:25;;;;;;;6.15;2.78;;;14.90;99.90;;;;;;6182716;23;20316;-84
2021/10/25 01:54:51;;;;;;;9.57;2.95;;;14.90;99.90;;;;;;6183284;23;20004;-84
2021/10/25 01:57:17;;;;;;;8.32;2.92;;;14.90;99.90;;;;;;6183234;23;20095;-84
2021/10/25 01:59:42;;;;;;;5.95;2.75;;;14.90;99.90;;;;;;6183335;23;20005;-84
2021/10/25 02:02:08;;;;;;;7.32;3.05;;;14.90;99.90;;;;;;6182838;23;20382;-84
2021/10/25 02:04:34;;;;;;;6.60;3.17;;;15.00;99.90;;;;;;6183034;23;19997;-84
2021/10/25 02:07:00;;;;;;;7.85;2.70;;;15.00;99.90;;;;;;6182499;23;20020;-84
2021/10/25 02:09:26;;;;;;;9.02;3.42;;;14.90;99.90;;;;;;6182731;23;20068;-84
2021/10/25 02:11:52;;;;;;;17.70;3.50;;;14.90;99.90;;;;;;6182746;23;20008;-84
2021/10/25 02:14:18;;;;;;;7.68;4.00;;;15.00;99.90;;;;;;6182512;23;20004;-84
2021/10/25 02:16:44;;;;;;;11.07;3.08;;;14.90;99.90;;;;;;6182993;23;20323;-84
2021/10/25 02:19:10;;;;;;;5.72;3.13;;;14.90;99.90;;;;;;6183673;23;20015;-84
2021/10/25 02:21:37;;;;;;;11.88;3.55;;;14.90;99.90;;;;;;6183447;23;20327;-84
2021/10/25 02:24:03;;;;;;;14.40;4.25;;;14.90;99.90;;;;;;6182931;23;20012;-85
2021/10/25 02:26:29;;;;;;;9.32;3.95;;;14.90;99.90;;;;;;6182786;23;20013;-83
2021/10/25 02:28:55;;;;;;;8.82;4.10;;;15.00;99.90;;;;;;6182888;23;20080;-84
2021/10/25 02:31:21;;;;;;;19.95;6.22;;;15.00;99.90;;;;;;6182823;23;20385;-84
2021/10/25 02:33:47;;;;;;;13.10;4.55;;;14.90;99.90;;;;;;6182635;23;20072;-84
2021/10/25 02:36:13;;;;;;;10.05;4.15;;;15.00;99.90;;;;;;6182592;23;20005;-84
2021/10/25 02:38:39;;;;;;;15.70;4.70;;;15.00;99.90;;;;;;6181049;23;20505;-84
2021/10/25 02:41:07;;;;;;;18.83;4.50;;;15.00;99.90;;;;;;6182077;23;20153;-84
2021/10/25 02:43:33;;;;;;;10.80;4.03;;;15.00;99.90;;;;;;6182591;23;20236;-84
2021/10/25 02:45:59;;;;;;;10.73;3.97;;;15.00;99.90;;;;;;6182101;23;20016;-84
2021/10/25 02:48:26;;;;;;;25.27;5.00;;;15.00;99.90;;;;;;6182214;23;20036;-84
2021/10/25 02:50:52;;;;;;;26.77;4.63;;;14.90;99.90;;;;;;6182399;23;20390;-84
2021/10/25 02:53:20;;;;;;;12.27;4.20;;;15.00;99.90;;;;;;6182388;23;20001;-84
2021/10/25 02:55:46;;;;;;;10.02;4.20;;;15.00;99.90;;;;;;6182487;23;20002;-84
2021/10/25 02:58:11;;;;;;;14.13;4.45;;;15.00;99.90;;;;;;6180677;23;20015;-84
2021/10/25 03:00:37;;;;;;;14.30;4.65;;;15.00;99.90;;;;;;6182467;23;20071;-84
2021/10/25 03:03:03;;;;;;;10.43;3.88;;;15.00;99.90;;;;;;6180834;23;20012;-84
2021/10/25 03:05:29;;;;;;;7.57;3.92;;;15.00;99.90;;;;;;6180997;23;20020;-84
2021/10/25 03:07:54;;;;;;;13.82;4.18;;;15.00;99.90;;;;;;6182301;23;20009;-84
2021/10/25 03:10:20;;;;;;;15.15;4.45;;;15.00;99.90;;;;;;6180705;23;20423;-84
2021/10/25 03:12:47;;;;;;;9.93;3.88;;;15.00;99.90;;;;;;6182641;23;20059;-84
2021/10/25 03:15:13;;;;;;;11.50;4.18;;;14.90;99.90;;;;;;6181600;23;20005;-84
2021/10/25 03:17:39;;;;;;;19.15;4.72;;;14.90;99.90;;;;;;6183087;23;20076;-84
2021/10/25 03:20:06;;;;;;;11.93;5.00;;;14.90;99.90;;;;;;6182499;23;20415;-84
2021/10/25 03:22:32;;;;;;;9.93;3.90;;;14.80;99.90;;;;;;6183211;23;20001;-84
2021/10/25 03:24:58;;;;;;;7.85;4.25;;;14.80;99.90;;;;;;6182667;23;20442;-84
2021/10/25 03:27:25;;;;;;;13.18;4.53;;;14.80;99.90;;;;;;6181867;23;20056;-84
2021/10/25 03:29:51;;;;;;;9.63;4.18;;;14.70;99.90;;;;;;6181754;23;20009;-84
2021/10/25 03:32:16;;;;;;;6.88;3.80;;;14.70;99.90;;;;;;6181310;23;20005;-84
2021/10/25 03:34:42;;;;;;;13.10;5.20;;;14.70;99.90;;;;;;6180888;23;20001;-84
2021/10/25 03:37:08;;;;;;;13.98;4.90;;;14.80;99.90;;;;;;6180745;23;20008;-84
2021/10/25 03:39:36;;;;;;;12.90;5.00;;;14.80;99.90;;;;;;6180778;23;20009;-84
2021/10/25 03:42:08;;;;;;;16.40;6.47;;;14.80;99.90;;;;;;6179552;23;20037;-84
2021/10/25 03:44:43;;;;;;;14.95;5.57;;;14.80;99.90;;;;;;6180535;23;20009;-84
2021/10/25 03:47:20;;;;;;;12.90;5.50;;;14.80;99.90;;;;;;6180994;23;20009;-84
2021/10/25 03:49:52;;;;;;;8.30;5.20;;;14.70;99.90;;;;;;6181400;23;20442;-84
2021/10/25 03:52:36;;;;;;;8.07;4.97;;;14.70;99.90;;;;;;6181363;23;20005;-84
2021/10/25 03:55:12;;;;;;;10.65;5.35;;;14.60;99.90;;;;;;6179507;23;20009;-84
2021/10/25 03:58:48;;;;;;;13.43;6.10;;;14.60;99.90;;;;;;6181601;23;20005;-84
2021/10/25 04:00:56;;;;;;;8.30;4.93;;;14.60;99.90;;;;;;6161209;23;19997;-84
2021/10/25 04:27:50;;;;;;;7.65;4.80;;;14.40;99.90;;;;;;6181693;23;20031;-84
2021/10/25 04:30:18;;;;;;;11.60;5.05;;;14.40;99.90;;;;;;6182501;23;20083;-84
2021/10/25 04:32:44;;;;;;;11.93;5.47;;;14.40;99.90;;;;;;6183641;23;20177;-84
2021/10/25 04:35:10;;;;;;;10.93;5.00;;;14.50;99.90;;;;;;6183417;23;20256;-84
2021/10/25 04:37:35;;;;;;;10.15;5.05;;;14.50;99.90;;;;;;6183357;23;20001;-83
2021/10/25 04:40:05;;;;;;;9.52;4.43;;;14.40;99.90;;;;;;6183426;23;20051;-84
2021/10/25 04:42:32;;;;;;;13.48;5.47;;;14.40;99.90;;;;;;6183255;23;20345;-84
2021/10/25 04:44:58;;;;;;;9.60;4.35;;;14.40;99.90;;;;;;6183165;23;19997;-84
2021/10/25 04:47:24;;;;;;;16.75;6.35;;;14.40;99.90;;;;;;6183305;23;20019;-84
2021/10/25 04:49:50;;;;;;;21.30;7.30;;;14.40;99.90;;;;;;6183536;23;20439;-84
2021/10/25 04:52:16;;;;;;;16.83;8.13;;;14.60;99.90;;;;;;6183357;23;20015;-84
2021/10/25 04:54:42;;;;;;;19.15;7.50;;;14.70;99.90;;;;;;6183225;23;20060;-84
2021/10/25 04:57:08;;;;;;;18.73;7.22;;;14.90;99.90;;;;;;6181580;23;20092;-84
2021/10/25 04:59:33;;;;;;;19.30;7.40;;;14.90;99.90;;;;;;6182949;23;20005;-84
2021/10/25 05:01:59;;;;;;;11.27;6.68;;;14.80;99.90;;;;;;6183335;23;20009;-83
2021/10/25 05:04:25;;;;;;;19.60;6.82;;;14.80;99.90;;;;;;6184628;23;19997;-84
2021/10/25 05:06:51;;;;;;;17.10;6.68;;;14.80;99.90;;;;;;6183998;23;20036;-83
2021/10/25 05:09:17;;;;;;;26.80;6.78;;;14.80;99.90;;;;;;6183736;23;20005;-84
2021/10/25 05:11:44;;;;;;;14.38;5.63;;;14.70;99.90;;;;;;6183954;23;20008;-84
2021/10/25 05:14:09;;;;;;;17.38;6.18;;;14.60;99.90;;;;;;6183981;23;20005;-84
2021/10/25 05:16:35;;;;;;;15.77;6.07;;;14.60;99.90;;;;;;6183473;23;20051;-83
2021/10/25 05:19:01;;;;;;;11.25;5.53;;;14.50;99.90;;;;;;6183299;23;20008;-84
2021/10/25 05:21:26;;;;;;;12.75;5.50;;;14.50;99.90;;;;;;6183318;23;20001;-83
2021/10/25 05:23:52;;;;;;;12.18;5.38;;;14.40;99.90;;;;;;6183147;23;20001;-83
2021/10/25 05:26:18;;;;;;;9.43;5.10;;;14.40;99.90;;;;;;6183052;23;20084;-84
2021/10/25 05:28:44;;;;;;;12.75;5.90;;;14.30;99.90;;;;;;6182999;23;20012;-83
2021/10/25 05:31:11;;;;;;;12.38;5.10;;;14.30;99.90;;;;;;6182822;23;20449;-83
2021/10/25 05:33:37;;;;;;;17.00;4.82;;;14.20;99.90;;;;;;6183629;23;20001;-83
2021/10/25 05:36:05;;;;;;;8.80;3.92;;;14.10;99.90;;;;;;6183251;23;20005;-83
2021/10/25 05:38:30;;;;;;;12.32;4.63;;;14.00;99.90;;;;;;6183467;23;20442;-83
2021/10/25 05:40:56;;;;;;;17.58;4.70;;;14.00;99.90;;;;;;6183533;23;20076;-83
2021/10/25 05:43:22;;;;;;;10.23;4.85;;;14.00;99.90;;;;;;6182777;23;20084;-83
2021/10/25 05:45:48;;;;;;;7.65;4.35;;;14.00;99.90;;;;;;6183509;23;20029;-85
2021/10/25 05:48:14;;;;;;;12.38;5.75;;;14.00;99.90;;;;;;6183397;23;20017;-83
2021/10/25 05:50:42;;;;;;;12.07;5.65;;;14.00;99.90;;;;;;6183473;23;20001;-84
2021/10/25 05:53:08;;;;;;;17.88;6.15;;;14.10;99.90;;;;;;6183579;23;20366;-84
2021/10/25 05:55:35;;;;;;;17.80;6.30;;;14.20;99.90;;;;;;6183229;23;19997;-84
2021/10/25 05:58:01;;;;;;;18.75;7.22;;;14.20;99.90;;;;;;6183085;23;20001;-84
2021/10/25 06:00:30;;;;;;;19.60;6.47;;;14.40;99.90;;;;;;6183353;23;20076;-84
2021/10/25 06:02:57;;;;;;;22.02;6.97;;;14.30;99.90;;;;;;6181240;23;20036;-84
2021/10/25 06:05:26;;;;;;;20.83;5.82;;;14.30;99.90;;;;;;6183048;23;20016;-84
2021/10/25 06:07:52;;;;;;;18.13;5.90;;;14.40;99.90;;;;;;6182566;23;20013;-84
2021/10/25 06:10:24;;;;;;;18.80;5.10;;;14.30;99.90;;;;;;6182382;23;20071;-84
2021/10/25 06:12:50;;;;;;;11.55;4.75;;;14.30;99.90;;;;;;6182275;23;20346;-85
2021/10/25 06:15:18;;;;;;;15.15;5.63;;;14.30;99.90;;;;;;6182597;23;19997;-84
2021/10/25 06:18:08;;;;;;;10.82;4.72;;;14.20;99.90;;;;;;6182344;23;20028;-83
2021/10/25 06:20:37;;;;;;;9.13;4.50;;;14.20;99.90;;;;;;6182560;23;20005;-85
2021/10/25 06:23:13;;;;;;;9.50;4.20;;;14.20;99.90;;;;;;6182440;23;20032;-86
2021/10/25 06:25:40;;;;;;;11.50;4.07;;;14.20;99.90;;;;;;6182296;23;20017;-85
2021/10/25 06:28:07;;;;;;;14.65;4.70;;;14.20;99.90;;;;;;6182188;23;20012;-85
2021/10/25 06:30:33;;;;;;;16.63;4.97;;;14.20;99.90;;;;;;6180550;23;20001;-85
2021/10/25 06:33:03;;;;;;;11.23;4.85;;;14.10;99.90;;;;;;6182204;23;20327;-85
2021/10/25 06:35:31;;;;;;;11.60;4.80;;;14.10;99.90;;;;;;6182505;23;20004;-85
2021/10/25 06:38:08;;;;;;;12.15;4.50;;;14.10;99.90;;;;;;6182464;23;20005;-85
2021/10/25 06:40:34;;;;;;;14.15;4.93;;;14.10;99.90;;;;;;6180855;23;20012;-85
2021/10/25 06:43:00;;;;;;;12.50;4.10;;;14.10;99.90;;;;;;6182123;23;20337;-85
2021/10/25 06:45:26;;;;;;;18.55;5.18;;;14.10;99.90;;;;;;6182376;23;20001;-85
2021/10/25 06:47:53;;;;;;;11.32;4.88;;;14.10;99.90;;;;;;6180507;23;20017;-85
2021/10/25 06:50:23;;;;;;;14.25;5.13;;;14.10;99.90;;;;;;6182261;23;20004;-85
2021/10/25 06:52:51;;;;;;;20.30;5.28;;;14.10;99.90;;;;;;6182950;23;20032;-85
2021/10/25 06:55:17;;;;;;;10.63;4.45;;;14.10;99.90;;;;;;6182522;23;20013;-85
2021/10/25 06:57:43;;;;;;;15.27;4.78;;;14.10;99.90;;;;;;6182612;23;20365;-85
2021/10/25 07:00:10;;;;;;;16.05;4.78;;;14.20;99.90;;;;;;6155711;23;20514;-86
2021/10/25 07:02:36;;;;;;;20.73;6.28;;;14.20;99.90;;;;;;6184903;23;20011;-85
2021/10/25 07:05:03;;;;;;;12.20;6.40;;;14.20;99.90;;;;;;6208350;23;20341;-85
2021/10/25 07:07:30;;;;;;;14.95;7.60;;;14.30;99.90;;;;;;6197292;23;20064;-86
2021/10/25 07:09:56;;;;;;;15.60;7.00;;;14.40;99.90;;;;;;6189466;23;20048;-85
2021/10/25 07:12:24;;;;;;;25.30;8.70;;;14.50;99.90;;;;;;6182343;23;20009;-85
2021/10/25 07:14:54;;;;;;;34.92;14.30;;;14.60;99.90;;;;;;6184820;23;20013;-86
2021/10/25 07:17:26;;;;;;;24.42;12.85;;;14.60;99.90;;;;;;6192555;23;19997;-85
2021/10/25 07:59:28;;;;;;;31.50;11.82;;;14.60;99.90;;;;;;6183239;23;20213;-86
2021/10/25 08:11:47;;;;;;;9.93;3.90;;;15.00;99.90;;;;;;6184678;23;20008;-86
2021/10/25 08:14:14;;;;;;;12.60;3.63;;;15.10;99.90;;;;;;6184420;23;20039;-86
2021/10/25 08:19:23;;;;;;;11.23;2.75;;;15.40;99.90;;;;;;6184723;23;20017;-87
2021/10/25 08:21:57;;;;;;;12.90;3.00;;;15.50;99.90;;;;;;6184673;23;20005;-86
2021/10/25 08:24:24;;;;;;;11.40;2.40;;;15.50;99.90;;;;;;6184949;23;20001;-86
2021/10/25 08:26:50;;;;;;;12.90;2.67;;;15.50;99.90;;;;;;6184344;23;20067;-87
2021/10/25 08:29:17;;;;;;;8.88;2.38;;;15.50;99.90;;;;;;6184481;23;20011;-86
2021/10/25 08:31:45;;;;;;;9.80;2.28;;;15.50;99.90;;;;;;6184760;23;20024;-87
2021/10/25 08:42:10;;;;;;;9.52;1.80;;;15.60;99.90;;;;;;6185177;23;20055;-87
2021/10/25 08:44:38;;;;;;;10.38;2.10;;;15.70;99.90;;;;;;6184559;23;20008;-87
2021/10/25 08:47:04;;;;;;;7.25;1.88;;;15.70;99.90;;;;;;6184731;23;20009;-86
2021/10/25 08:49:30;;;;;;;8.98;2.25;;;15.80;99.90;;;;;;6184564;23;20446;-87
2021/10/25 08:51:56;;;;;;;9.80;2.40;;;15.90;99.90;;;;;;6184601;23;20393;-87
2021/10/25 08:54:21;;;;;;;10.25;1.67;;;15.90;99.90;;;;;;6184168;23;20032;-87
2021/10/25 08:56:49;;;;;;;11.27;2.60;;;16.10;99.90;;;;;;6182479;23;20473;-87
2021/10/25 08:59:15;;;;;;;15.93;2.50;;;16.20;99.90;;;;;;6184665;23;20005;-85
2021/10/25 09:01:41;;;;;;;11.88;2.35;;;16.40;99.90;;;;;;6184660;23;20012;-86
2021/10/25 09:04:11;;;;;;;12.75;2.10;;;16.50;99.90;;;;;;6184465;23;20001;-86
2021/10/25 09:06:51;;;;;;;9.48;3.17;;;16.50;99.90;;;;;;6184081;23;20001;-87
2021/10/25 09:09:16;;;;;;;11.48;1.92;;;16.60;99.90;;;;;;6184227;23;20346;-87
2021/10/25 09:11:58;;;;;;;13.13;1.92;;;16.70;99.90;;;;;;6184123;23;20072;-86
2021/10/25 09:14:26;;;;;;;11.18;2.13;;;16.60;99.90;;;;;;6186740;23;20059;-87
2021/10/25 09:17:18;;;;;;;17.05;2.15;;;16.50;99.90;;;;;;6183637;23;20378;-87
2021/10/25 09:19:46;;;;;;;16.13;3.05;;;16.50;99.90;;;;;;6182750;23;20063;-86
2021/10/25 09:22:17;;;;;;;13.07;2.20;;;16.50;99.90;;;;;;6184438;23;20013;-87
2021/10/25 09:24:55;;;;;;;13.50;2.17;;;16.50;99.90;;;;;;6183857;23;20005;-84
2021/10/25 09:27:47;;;;;;;14.55;2.03;;;16.50;99.90;;;;;;6183729;23;20035;-84
2021/10/25 09:30:22;;;;;;;16.40;2.80;;;16.50;99.90;;;;;;6178715;23;20453;-85
2021/10/25 09:32:50;;;;;;;15.00;2.45;;;16.60;99.90;;;;;;6183363;23;20501;-85
2021/10/25 09:35:18;;;;;;;13.90;2.17;;;16.70;99.90;;;;;;6182396;23;20401;-86
2021/10/25 09:37:52;;;;;;;15.40;2.97;;;16.90;99.90;;;;;;6184095;23;20366;-86
2021/10/25 09:40:23;;;;;;;;;;;16.90;99.90;;;;;;6184422;23;19997;-87
2021/10/25 09:43:17;;;;;;;11.45;3.35;;;16.70;99.90;;;;;;6184154;23;19958;-87
2021/10/25 09:45:55;;;;;;;12.07;3.17;;;16.60;99.90;;;;;;6183551;23;20001;-87
2021/10/25 09:51:06;;;;;;;16.50;3.55;;;16.60;99.90;;;;;;6183692;23;20012;-87
2021/10/25 09:53:39;;;;;;;12.57;3.00;;;16.70;99.90;;;;;;6183647;23;20135;-86
2021/10/25 09:56:10;;;;;;;13.40;2.88;;;16.70;99.90;;;;;;6182078;23;20036;-87
2021/10/25 09:58:47;;;;;;;15.48;2.88;;;16.70;99.90;;;;;;6183586;23;20382;-87
2021/10/25 10:01:15;;;;;;;13.45;2.90;;;16.80;99.90;;;;;;6184117;23;20028;-87
2021/10/25 10:03:44;;;;;;;10.25;2.53;;;16.80;99.90;;;;;;6183726;23;20001;-87
2021/10/25 10:06:10;;;;;;;9.40;2.45;;;16.90;99.90;;;;;;6184024;23;20028;-87
2021/10/25 10:08:37;;;;;;;11.88;3.30;;;16.90;99.90;;;;;;6183431;23;20342;-87
2021/10/25 10:11:03;;;;;;;15.88;3.08;;;17.00;99.90;;;;;;6183508;23;19997;-87
2021/10/25 10:13:30;;;;;;;12.05;2.90;;;17.00;99.90;;;;;;6183398;23;20072;-87
2021/10/25 10:15:58;;;;;;;12.77;2.95;;;16.90;99.90;;;;;;6183316;23;20058;-87
2021/10/25 10:18:26;;;;;;;16.15;3.72;;;16.70;99.90;;;;;;6183142;23;20009;-87
2021/10/25 10:20:56;;;;;;;20.83;3.58;;;16.80;99.90;;;;;;6184008;23;20257;-86
2021/10/25 10:23:23;;;;;;;16.73;3.05;;;17.00;99.90;;;;;;6182630;23;20043;-87
2021/10/25 10:25:54;;;;;;;14.93;2.80;;;17.00;99.90;;;;;;6183018;23;20023;-87
2021/10/25 10:28:40;;;;;;;16.20;2.63;;;17.10;99.90;;;;;;6182435;23;20013;-86
2021/10/25 10:31:17;;;;;;;15.00;3.15;;;17.30;99.90;;;;;;6183435;23;20004;-87
2021/10/25 10:33:49;;;;;;;15.77;2.80;;;17.40;99.90;;;;;;6183437;23;19997;-87
2021/10/25 10:36:24;;;;;;;12.85;2.55;;;17.60;99.90;;;;;;6183259;23;20451;-87
2021/10/25 10:39:10;;;;;;;14.82;3.15;;;17.90;99.90;;;;;;6181474;23;20064;-87
2021/10/25 10:41:38;;;;;;;13.48;3.20;;;18.00;99.90;;;;;;6181105;23;20001;-87
2021/10/25 10:44:05;;;;;;;12.40;3.00;;;18.00;99.90;;;;;;6181424;23;20033;-87
2021/10/25 10:46:52;;;;;;;16.48;2.55;;;17.80;99.90;;;;;;6181562;23;20488;-87
2021/10/25 10:49:23;;;;;;;17.77;2.40;;;18.00;99.90;;;;;;6184074;23;20023;-86
2021/10/25 10:57:46;;;;;;;11.63;2.92;;;18.60;99.90;;;;;;6183080;23;20481;-87
2021/10/25 11:00:07;;;;;;;12.18;2.80;;;18.40;99.90;;;;;;6182414;23;20497;-87
2021/10/25 11:02:33;;;;;;;16.75;3.38;;;18.20;99.90;;;;;;6182880;23;20339;-87
2021/10/25 11:05:09;;;;;;;17.27;3.45;;;18.20;99.90;;;;;;6181303;23;20005;-87
2021/10/25 11:07:39;;;;;;;16.83;2.67;;;18.20;99.90;;;;;;6183092;23;20041;-87
2021/10/25 11:10:06;;;;;;;27.52;2.95;;;18.30;99.90;;;;;;6181451;23;20516;-87
2021/10/25 11:12:31;;;;;;;15.60;2.42;;;18.40;99.90;;;;;;6181348;23;20013;-87
2021/10/25 11:15:03;;;;;;;20.58;3.17;;;18.20;99.90;;;;;;6183350;23;20044;-87
2021/10/25 11:17:31;;;;;;;15.38;3.15;;;18.10;99.90;;;;;;6182976;23;20005;-87
2021/10/25 11:19:56;;;;;;;15.32;2.65;;;18.30;99.90;;;;;;6183001;23;20055;-86
2021/10/25 11:22:35;;;;;;;17.27;2.53;;;18.30;99.90;;;;;;6182950;23;20005;-86
2021/10/25 11:25:04;;;;;;;16.17;2.72;;;18.40;99.90;;;;;;6183091;23;20021;-87
2021/10/25 11:27:32;;;;;;;21.17;3.08;;;18.50;99.90;;;;;;6182722;23;20016;-86
2021/10/25 11:30:17;;;;;;;19.10;3.33;;;18.60;99.90;;;;;;6182626;23;20001;-87
2021/10/25 11:32:44;;;;;;;15.18;3.03;;;18.50;99.90;;;;;;6183163;23;20005;-87
2021/10/25 11:35:13;;;;;;;15.48;2.70;;;18.60;99.90;;;;;;6182881;23;19997;-87
2021/10/25 11:37:50;;;;;;;21.55;2.45;;;18.50;99.90;;;;;;6183917;23;20001;-87
2021/10/25 11:40:23;;;;;;;16.23;2.78;;;18.40;99.90;;;;;;6184562;23;20001;-87
2021/10/25 11:42:49;;;;;;;15.65;2.60;;;18.30;99.90;;;;;;6185562;23;20370;-87
2021/10/25 11:45:19;;;;;;;23.17;4.22;;;18.20;99.90;;;;;;6186969;23;19997;-86
2021/10/25 11:47:47;;;;;;;21.40;3.50;;;17.90;99.90;;;;;;6185380;23;20019;-88
2021/10/25 11:50:23;;;;;;;15.85;2.88;;;17.80;99.90;;;;;;6184756;23;20001;-87
2021/10/25 11:52:58;;;;;;;18.38;3.40;;;17.70;99.90;;;;;;6184019;23;20062;-87
2021/10/25 11:55:35;;;;;;;15.60;2.20;;;17.80;99.90;;;;;;6178692;23;20381;-87
2021/10/25 11:58:04;;;;;;;16.85;2.20;;;17.80;99.90;;;;;;6183803;23;20016;-87
2021/10/25 12:00:38;;;;;;;14.98;2.85;;;17.80;99.90;;;;;;6184035;23;20001;-87
2021/10/25 12:03:27;;;;;;;16.60;3.00;;;18.00;99.90;;;;;;6184084;23;20001;-87
2021/10/25 12:05:53;;;;;;;15.60;2.70;;;18.20;99.90;;;;;;6183478;23;20012;-87
2021/10/25 12:08:19;;;;;;;17.42;2.65;;;18.30;99.90;;;;;;6183811;23;20009;-87
2021/10/25 12:10:49;;;;;;;16.60;2.45;;;18.20;99.90;;;;;;6184383;23;20112;-87
2021/10/25 12:13:16;;;;;;;16.63;2.85;;;18.30;99.90;;;;;;6183781;23;20103;-87
2021/10/25 12:15:54;;;;;;;14.07;2.55;;;18.40;99.90;;;;;;6181964;23;20001;-87
2021/10/25 12:18:21;;;;;;;19.08;3.28;;;18.60;99.90;;;;;;6182370;23;20442;-87
2021/10/25 12:20:48;;;;;;;19.10;2.60;;;18.80;99.90;;;;;;6183712;23;20016;-87
2021/10/25 12:23:17;;;;;;;14.27;2.83;;;18.90;99.90;;;;;;6182282;23;20005;-87
2021/10/25 12:25:45;;;;;;;15.95;3.08;;;18.90;99.90;;;;;;6183714;23;20405;-87
2021/10/25 12:28:19;;;;;;;12.05;2.28;;;18.80;99.90;;;;;;6183772;23;20037;-87
2021/10/25 12:30:52;;;;;;;16.57;2.23;;;18.90;99.90;;;;;;6183848;23;19997;-86
2021/10/25 12:33:22;;;;;;;15.60;2.88;;;18.80;99.90;;;;;;6183781;23;20001;-87
2021/10/25 12:35:48;;;;;;;17.90;3.45;;;19.00;99.90;;;;;;6183641;23;20001;-87
2021/10/25 12:38:21;;;;;;;21.73;3.15;;;18.80;99.90;;;;;;6183864;23;20005;-86
2021/10/25 12:40:48;;;;;;;16.38;3.28;;;18.80;99.90;;;;;;6184104;23;19997;-86
2021/10/25 12:43:16;;;;;;;20.65;3.45;;;18.70;99.90;;;;;;6183685;23;20481;-86
2021/10/25 12:45:44;;;;;;;17.50;3.30;;;18.50;99.90;;;;;;6181878;23;20058;-86
2021/10/25 12:48:16;;;;;;;20.92;3.25;;;18.40;99.90;;;;;;6183373;23;20386;-86
2021/10/25 12:50:46;;;;;;;19.08;3.08;;;18.40;99.90;;;;;;6181143;23;20053;-86
2021/10/25 12:53:14;;;;;;;19.75;3.30;;;18.40;99.90;;;;;;6183465;23;20001;-86
2021/10/25 12:55:42;;;;;;;21.10;2.83;;;18.20;99.90;;;;;;6181695;23;20005;-87
2021/10/25 12:58:12;;;;;;;23.88;2.70;;;18.10;99.90;;;;;;6183686;23;20155;-87
2021/10/25 13:00:38;;;;;;;16.45;3.03;;;18.10;99.90;;;;;;6181696;23;20047;-87
2021/10/25 13:03:11;;;;;;;13.75;2.30;;;18.20;99.90;;;;;;6182253;23;20009;-87
2021/10/25 13:05:39;;;;;;;18.63;2.58;;;18.40;99.90;;;;;;6183469;23;19997;-86
2021/10/25 13:08:09;;;;;;;11.85;2.72;;;18.40;99.90;;;;;;6181703;23;20091;-87
2021/10/25 13:10:42;;;;;;;19.30;2.53;;;18.30;99.90;;;;;;6183347;23;20461;-86
2021/10/25 13:13:11;;;;;;;25.52;2.97;;;18.30;99.90;;;;;;6183317;23;20004;-87
2021/10/25 13:15:38;;;;;;;20.95;3.45;;;18.40;99.90;;;;;;6183589;23;20009;-86
2021/10/25 13:18:06;;;;;;;24.10;4.25;;;18.20;99.90;;;;;;6183686;23;20047;-86
2021/10/25 13:20:36;;;;;;;19.90;4.28;;;18.10;99.90;;;;;;6183370;23;20005;-87
2021/10/25 13:23:03;;;;;;;24.98;3.05;;;18.00;99.90;;;;;;6181120;23;20005;-87
2021/10/25 13:25:30;;;;;;;16.55;2.58;;;18.00;99.90;;;;;;6181232;23;20021;-87
2021/10/25 13:27:58;;;;;;;22.05;3.95;;;18.00;99.90;;;;;;6183369;23;20434;-87
2021/10/25 13:30:25;;;;;;;22.58;3.28;;;18.00;99.90;;;;;;6183014;23;20370;-87
2021/10/25 13:32:53;;;;;;;19.05;2.85;;;18.10;99.90;;;;;;6182997;23;20539;-86
2021/10/25 13:35:20;;;;;;;17.27;3.42;;;18.00;99.90;;;;;;6183323;23;20118;-87
2021/10/25 13:37:55;;;;;;;20.55;3.40;;;17.90;99.90;;;;;;6182835;23;20036;-87
2021/10/25 13:40:23;;;;;;;19.27;3.25;;;18.00;99.90;;;;;;6181983;23;20369;-86
2021/10/25 13:42:50;;;;;;;26.75;3.38;;;18.20;99.90;;;;;;6183043;23;20001;-86
2021/10/25 13:45:16;;;;;;;16.08;2.50;;;18.20;99.90;;;;;;6182685;23;20031;-87
2021/10/25 13:47:42;;;;;;;17.02;2.85;;;18.10;99.90;;;;;;6183089;23;20009;-87
2021/10/25 13:50:08;;;;;;;19.67;3.17;;;18.10;99.90;;;;;;6180840;23;20064;-87
2021/10/25 13:52:36;;;;;;;19.00;3.60;;;18.20;99.90;;;;;;6182880;23;20047;-87
2021/10/25 13:55:05;;;;;;;33.53;3.72;;;18.30;99.90;;;;;;6182887;23;20008;-87
2021/10/25 13:57:35;;;;;;;24.88;3.53;;;18.20;99.90;;;;;;6183646;23;20005;-87
2021/10/25 14:00:01;;;;;;;24.70;3.40;;;18.20;99.90;;;;;;6180967;23;20016;-87
2021/10/25 14:02:29;;;;;;;26.80;3.90;;;18.40;99.90;;;;;;6182676;23;20001;-87
2021/10/25 14:04:58;;;;;;;20.85;2.90;;;18.40;99.90;;;;;;6181190;23;20001;-86
2021/10/25 14:07:30;;;;;;;15.35;3.28;;;18.10;99.90;;;;;;6181469;23;20013;-86
2021/10/25 14:10:03;;;;;;;23.20;2.97;;;17.90;99.90;;;;;;6182769;23;20001;-86
2021/10/25 14:12:30;;;;;;;16.30;3.08;;;17.70;99.90;;;;;;6156130;23;20447;-87
2021/10/25 14:15:05;;;;;;;23.40;3.70;;;17.70;99.90;;;;;;6182634;23;20023;-87
2021/10/25 14:17:31;;;;;;;24.60;4.20;;;17.70;99.90;;;;;;6182789;23;20058;-87